Sandovalina, Brazil
Current Conditions -  °F | °C
As of 12:00 PM on Monday 26 Jan 2015 (Local Time) from SBDN Reporting Station
Broken Clouds Broken Clouds  
Wind Chill: 86°   Ceiling: 3300
Heat Index: 88°   Visibility: 6mi
Dew Point: 66°   Wind: 8mph
Humidity: 51%   Direction: 350°N
Pressure: 29.97"   Gusts: NA
Location:  22.46°S, 51.76°W
Report Text: SBDN 261400Z 35007KT 9999 BKN033 30/19 Q1015
Loading
Personal Weather Stations






























Interactive Weather Map New forecast layout! Learn more

10-Day Weather Forecast

Advertisements
Track Severe Weather on mobile